25 Jun 2018 19:35 UTC 2018176+19:35 UTC

Overview Datums Bench Marks Data Query Site Visit Daily QC Messages Attributes

171: National Park Service - Bird Island

27° 29' 4" N   97° 19' 5" W
NPSBI
United States National Park Service United States National Park Service

Station Information

National Park Service - Bird Island
National Park Service - Bird Island
more pictures
 
Station Name:National Park Service - Bird Island
DNR ID:171
Location:27° 29' 4" N, 97° 19' 5" W

Water Level Forecasts

Latest Observations

Series Metric English Marine Observed at
Water Temperature 30.1 °C 86.2 °F 86.2 °F Jun 25 14:12 CDT
00h07m ago
Salinity 45.000 psu 45.000 psu 45.000 psu Jun 25 14:12 CDT
00h07m ago
pH 7.89 pH 7.89 pH 7.89 pH Jun 25 14:12 CDT
00h07m ago
Turbidity 78 ntu 78 ntu 78 ntu Jun 25 14:12 CDT
00h07m ago
Dissolved Oxygen 0.27 mg/L 0.000017 lb/ft3 0.000017 lb/ft3 Jun 25 14:12 CDT
00h07m ago

Maps

National Park Service - Bird Island
All Stations in Area
Entire Network
 

Recent Observations

Date/Time Water
Temp (°F)
Sal (psu) pH (pH) Turb (ntu) DO (lb/ft3)
Jun 25 14:00 CDT 85.8 45.000 7.87 77 0.000017
Jun 25 13:00 CDT 84.7 45.000 7.91 75 0.000017
Jun 25 12:00 CDT 84.0 45.000 7.92 73 0.000017
Jun 25 11:00 CDT 83.7 45.000 7.92 72 0.000017
Jun 25 10:00 CDT 83.3 45.000 7.93 71 0.000017
Jun 25 09:00 CDT 83.1 45.000 7.93 71 0.000017
Jun 25 08:00 CDT 83.1 45.000 7.93 70 0.000017
Jun 25 07:00 CDT 83.1 45.000 7.94 70 0.000017
Jun 25 06:00 CDT 83.3 45.000 7.93 69 0.000017
Jun 25 05:00 CDT 83.5 45.000 7.94 69 0.000017
Jun 25 04:00 CDT 83.7 45.000 7.94 69 0.000017
Jun 25 03:00 CDT 84.0 45.000 7.94 68 0.000017
Jun 25 02:00 CDT 84.4 45.000 7.94 72 0.000017
Jun 25 01:00 CDT 84.7 45.000 7.94 66 0.000017
Jun 25 00:00 CDT 85.3 45.000 7.94 65 0.000017
Jun 24 23:00 CDT 85.6 45.000 7.94 64 0.000017
Jun 24 22:00 CDT 86.4 45.000 7.94 62 0.000017
Jun 24 21:00 CDT 87.1 45.000 7.94 62 0.000017
Jun 24 20:00 CDT 87.8 45.000 7.93 62 0.000016
Jun 24 19:00 CDT 88.3 45.000 7.93 62 0.000016
Jun 24 18:00 CDT 88.5 45.000 7.93 62 0.000016
Jun 24 17:00 CDT 88.7 45.000 7.94 62 0.000016
Jun 24 16:00 CDT 88.3 45.000 7.94 64 0.000016
Jun 24 15:00 CDT 87.6 45.000 7.95 62 0.000016
Jun 24 14:00 CDT 86.7 45.000 7.96 60 0.000017

Historical Data Availability